Terminal Aerodrome Forecast
Issued by NWS Paducah, KY

Home | Current Version | Previous Version | Graphics & Text | Print | Product List | Glossary On
Versions: 1 2 3 4 5 6 7 8 9 10 11 12 13 14 15 16 17 18 19 20 21 22 23 24 25 26 27 28 29 30
271
FTUS43 KPAH 171124
TAFEVV
TAF
KEVV 171124Z 1712/1812 06003KT P6SM VCSH OVC060
     FM171500 13006KT 3SM -RASN BR OVC025
     FM171900 19006KT 6SM -RA OVC015
     FM172100 21007KT P6SM VCSH OVC008
     FM180200 24005KT P6SM BKN090
     FM181000 VRB03KT 1/2SM FG SCT060=

USA.gov is the U.S. government's official web portal to all federal, state and local government web resources and services.